Time;durP1;ratioP1;P1;durP2;ratioP2;P2;SDS_P1;SDS_P2;PMS_P1;PMS_P2;Temp;Humidity;BMP_temperature;BMP_pressure;BME280_temperature;BME280_humidity;BME280_pressure;Samples;Min_cycle;Max_cycle;Signal;HPM_P1;HPM_P2
2022/06/27 00:01:54;;;;;;;7.85;7.25;;;;;;;16.68;52.71;100532.09;5035818;28;20168;-69
2022/06/27 00:04:21;;;;;;;10.25;9.55;;;;;;;16.48;52.74;100504.47;5039435;28;20524;-71
2022/06/27 00:06:48;;;;;;;8.05;7.45;;;;;;;16.76;52.93;100562.38;5040169;28;20223;-72
2022/06/27 00:09:15;;;;;;;8.60;8.02;;;;;;;16.63;53.25;100554.81;5048529;28;20135;-70
2022/06/27 00:11:42;;;;;;;7.67;6.90;;;;;;;16.56;53.60;100538.34;5048942;28;20103;-70
2022/06/27 00:14:09;;;;;;;8.63;7.87;;;;;;;16.58;53.52;100557.72;5048958;28;20112;-70
2022/06/27 00:16:36;;;;;;;9.27;7.10;;;;;;;16.58;53.38;100558.59;5056307;28;20145;-70
2022/06/27 00:19:18;;;;;;;8.03;7.33;;;;;;;16.41;53.74;100526.59;5049205;28;20049;-70
2022/06/27 00:21:46;;;;;;;12.45;7.32;;;;;;;16.48;53.58;100541.09;5053697;28;20124;-71
2022/06/27 00:24:12;;;;;;;7.93;7.20;;;;;;;16.47;53.58;100543.06;5047768;28;20056;-71
2022/06/27 00:26:39;;;;;;;7.97;7.37;;;;;;;16.34;53.88;100519.47;5049401;28;20550;-71
2022/06/27 00:29:06;;;;;;;7.57;6.97;;;;;;;16.52;53.45;100556.22;5050821;28;20550;-71
2022/06/27 00:31:33;;;;;;;8.87;7.80;;;;;;;16.32;53.36;100520.91;5055898;28;20507;-68
2022/06/27 00:34:00;;;;;;;9.57;7.77;;;;;;;16.53;53.42;100544.59;5049939;28;20037;-71
2022/06/27 00:36:27;;;;;;;9.00;8.27;;;;;;;16.42;53.11;100514.19;5049013;28;20072;-70
2022/06/27 00:38:54;;;;;;;8.70;7.60;;;;;;;16.52;52.96;100530.84;5043084;28;20081;-69
2022/06/27 00:41:21;;;;;;;9.13;7.33;;;;;;;16.51;53.13;100531.97;5036960;28;20140;-71
2022/06/27 00:43:48;;;;;;;9.48;7.40;;;;;;;16.33;53.35;100512.13;5037242;28;20461;-71
2022/06/27 00:46:16;;;;;;;7.97;7.23;;;;;;;16.52;53.49;100544.94;5035252;28;20053;-72
2022/06/27 00:48:43;;;;;;;9.30;7.53;;;;;;;16.42;53.37;100548.03;5043204;28;20049;-72
2022/06/27 00:51:10;;;;;;;9.98;7.32;;;;;;;16.45;53.37;100547.38;5056449;28;20136;-77
2022/06/27 00:53:38;;;;;;;8.60;7.80;;;;;;;16.36;53.53;100550.13;5049197;28;20049;-75
2022/06/27 00:56:05;;;;;;;8.03;7.40;;;;;;;16.32;53.89;100555.56;5045778;28;20136;-74
2022/06/27 00:58:32;;;;;;;12.27;7.07;;;;;;;16.20;53.98;100552.47;5053132;28;20114;-74
2022/06/27 01:00:59;;;;;;;8.73;7.00;;;;;;;15.95;54.53;100531.38;5056273;28;20124;-74
2022/06/27 01:03:26;;;;;;;7.50;7.00;;;;;;;15.69;54.50;100496.50;5053167;28;20056;-74
2022/06/27 01:05:53;;;;;;;8.07;7.33;;;;;;;15.66;54.75;100514.88;5054963;28;20076;-71
2022/06/27 01:08:23;;;;;;;9.17;7.00;;;;;;;15.72;55.15;100522.03;5039431;28;20045;-71
2022/06/27 01:10:50;;;;;;;8.32;7.47;;;;;;;15.88;55.14;100559.13;5034269;28;20049;-71
2022/06/27 01:13:17;;;;;;;8.77;7.47;;;;;;;15.80;55.25;100555.09;5034558;28;20076;-71
2022/06/27 01:15:45;;;;;;;10.77;7.57;;;;;;;15.74;55.56;100533.81;5035476;28;20132;-71
2022/06/27 01:18:12;;;;;;;8.00;7.40;;;;;;;15.67;55.46;100536.25;5034276;28;20088;-80
2022/06/27 01:20:42;;;;;;;9.87;7.67;;;;;;;15.83;55.37;100564.91;5045809;28;20052;-71
2022/06/27 01:23:09;;;;;;;8.30;7.55;;;;;;;15.83;55.49;100565.72;5042778;28;20478;-70
2022/06/27 01:25:36;;;;;;;9.27;8.30;;;;;;;15.85;55.56;100556.94;5047753;28;20061;-70
2022/06/27 01:28:05;;;;;;;8.33;7.73;;;;;;;15.88;55.65;100565.59;5035228;28;20080;-70
2022/06/27 01:30:32;;;;;;;8.83;8.10;;;;;;;15.76;55.70;100537.19;5033485;28;20076;-70
2022/06/27 01:32:59;;;;;;;10.83;8.20;;;;;;;15.87;55.51;100554.66;5053162;28;20385;-72
2022/06/27 01:35:26;;;;;;;10.73;7.87;;;;;;;15.80;55.69;100543.84;5037929;28;20083;-71
2022/06/27 01:37:53;;;;;;;9.30;8.10;;;;;;;15.88;55.72;100557.16;5048904;28;20141;-70
2022/06/27 01:40:20;;;;;;;8.60;7.80;;;;;;;15.87;55.36;100549.88;5034620;28;20081;-70
2022/06/27 01:42:47;;;;;;;10.43;7.87;;;;;;;15.90;55.48;100559.66;5071424;28;20132;-70
2022/06/27 01:45:14;;;;;;;8.07;7.43;;;;;;;15.91;55.42;100572.59;5052305;28;20048;-70
2022/06/27 01:47:40;;;;;;;8.47;7.57;;;;;;;15.69;55.43;100539.59;5035265;28;20088;-70
2022/06/27 01:50:09;;;;;;;10.40;7.57;;;;;;;15.95;55.10;100570.81;5046232;28;20135;-72
2022/06/27 01:52:37;;;;;;;8.47;7.13;;;;;;;15.95;55.20;100573.63;5052034;28;20476;-71
2022/06/27 01:55:05;;;;;;;8.60;7.90;;;;;;;15.90;55.29;100578.53;5050910;28;20135;-70
2022/06/27 01:57:30;;;;;;;9.70;8.90;;;;;;;15.73;55.30;100559.50;5032833;28;20407;-71
2022/06/27 01:59:59;;;;;;;9.57;7.90;;;;;;;15.82;55.47;100572.50;5034731;28;20469;-71
2022/06/27 02:02:26;;;;;;;7.60;6.90;;;;;;;15.67;55.56;100552.31;5033349;28;20095;-71
2022/06/27 02:04:53;;;;;;;8.77;7.47;;;;;;;15.72;55.64;100569.06;5042276;28;20040;-71
2022/06/27 02:07:21;;;;;;;8.03;7.30;;;;;;;15.70;55.92;100571.38;5033215;28;20128;-70
2022/06/27 02:09:47;;;;;;;8.17;7.47;;;;;;;15.68;56.22;100577.31;5043180;28;20563;-70
2022/06/27 02:12:22;;;;;;;9.27;7.27;;;;;;;15.66;56.18;100574.00;5034379;28;20458;-70
2022/06/27 02:14:52;;;;;;;9.67;7.30;;;;;;;15.68;56.32;100574.50;5032954;28;20049;-70
2022/06/27 02:17:19;;;;;;;8.05;7.32;;;;;;;15.64;56.23;100577.06;5036531;28;20475;-70
2022/06/27 02:19:47;;;;;;;8.07;7.37;;;;;;;15.53;56.03;100560.72;5040718;28;20136;-71
2022/06/27 02:22:14;;;;;;;9.33;6.90;;;;;;;15.68;56.05;100585.75;5044509;28;20136;-71
2022/06/27 02:24:43;;;;;;;10.70;7.57;;;;;;;15.71;56.08;100578.69;5044320;28;20148;-69
2022/06/27 02:27:11;;;;;;;8.27;7.50;;;;;;;15.65;56.18;100589.16;5039071;28;20131;-70
2022/06/27 02:29:38;;;;;;;11.17;7.33;;;;;;;15.57;56.10;100584.28;5052803;28;20175;-71
2022/06/27 02:32:06;;;;;;;7.87;7.23;;;;;;;15.55;56.28;100587.41;5050750;28;20131;-72
2022/06/27 02:34:35;;;;;;;8.87;8.13;;;;;;;15.00;56.47;100504.97;5049002;28;20045;-72
2022/06/27 02:37:03;;;;;;;9.13;7.60;;;;;;;15.53;56.38;100598.16;5033933;28;20080;-71
2022/06/27 02:39:32;;;;;;;7.90;7.20;;;;;;;15.35;56.42;100573.75;5049579;28;20081;-71
2022/06/27 02:42:01;;;;;;;7.77;7.13;;;;;;;15.29;56.54;100583.44;5052179;28;20076;-71
2022/06/27 02:44:29;;;;;;;8.20;7.38;;;;;;;15.10;56.64;100558.22;5053177;28;20135;-71
2022/06/27 02:46:57;;;;;;;8.10;7.33;;;;;;;15.41;56.71;100606.25;5047668;28;20140;-70
2022/06/27 02:49:24;;;;;;;8.50;7.67;;;;;;;15.36;56.48;100584.69;5036991;28;20270;-69
2022/06/27 02:52:06;;;;;;;10.23;8.70;;;;;;;15.49;56.33;100591.47;5032802;28;20512;-72
2022/06/27 02:54:48;;;;;;;8.20;7.50;;;;;;;15.43;56.15;100594.72;5033078;28;20152;-70
2022/06/27 02:57:29;;;;;;;7.83;7.03;;;;;;;15.34;56.59;100601.03;5043163;28;20144;-71
2022/06/27 02:59:57;;;;;;;8.93;8.13;;;;;;;15.19;57.00;100570.41;5048309;28;20135;-71
2022/06/27 03:02:25;;;;;;;8.43;7.13;;;;;;;15.17;57.03;100576.34;5032495;28;20128;-69
2022/06/27 03:04:54;;;;;;;11.80;7.27;;;;;;;15.27;56.92;100603.44;5035374;28;20455;-68
2022/06/27 03:07:21;;;;;;;8.07;7.20;;;;;;;15.19;57.10;100589.28;5047768;28;20080;-69
2022/06/27 03:09:48;;;;;;;7.77;7.27;;;;;;;15.13;56.97;100582.91;5037308;28;20088;-71
2022/06/27 03:12:16;;;;;;;8.03;7.27;;;;;;;15.18;56.98;100591.25;5047430;28;20128;-71
2022/06/27 03:14:42;;;;;;;11.00;7.80;;;;;;;15.24;57.23;100598.44;5035928;28;20150;-71
2022/06/27 03:17:09;;;;;;;8.60;7.73;;;;;;;15.20;56.98;100600.19;5032248;28;20128;-71
2022/06/27 03:19:36;;;;;;;8.10;7.40;;;;;;;15.05;57.40;100584.47;5039346;28;20140;-71
2022/06/27 03:22:03;;;;;;;12.53;8.33;;;;;;;15.06;57.69;100582.47;5034891;28;20191;-72
2022/06/27 03:24:30;;;;;;;9.00;6.80;;;;;;;14.90;57.66;100565.88;5032468;28;20081;-71
2022/06/27 03:26:57;;;;;;;8.27;7.10;;;;;;;14.88;57.89;100556.09;5034685;28;20128;-71
2022/06/27 03:29:23;;;;;;;11.40;7.67;;;;;;;15.16;57.78;100601.97;5048706;28;20135;-71
2022/06/27 03:31:50;;;;;;;10.20;7.37;;;;;;;14.82;57.87;100541.28;5034907;28;20563;-71
2022/06/27 03:34:17;;;;;;;7.73;7.13;;;;;;;14.85;57.88;100557.53;5035414;28;20132;-71
2022/06/27 03:36:44;;;;;;;8.47;7.53;;;;;;;15.09;57.79;100595.94;5051604;28;20080;-71
2022/06/27 03:39:11;;;;;;;8.30;7.40;;;;;;;15.10;57.93;100606.84;5043560;28;20053;-71
2022/06/27 03:41:39;;;;;;;9.57;7.77;;;;;;;15.07;58.18;100603.81;5035070;28;20483;-71
2022/06/27 03:44:09;;;;;;;9.23;7.37;;;;;;;14.87;57.91;100574.94;5052525;28;20132;-71
2022/06/27 03:46:36;;;;;;;8.73;7.80;;;;;;;14.96;58.16;100596.72;5049567;28;20099;-71
2022/06/27 03:51:50;;;;;;;9.10;8.20;;;;;;;15.01;58.12;100607.88;5032866;28;20084;-71
2022/06/27 03:54:17;;;;;;;12.60;7.90;;;;;;;15.00;58.48;100612.66;5036665;28;20088;-70
2022/06/27 03:56:44;;;;;;;7.93;7.37;;;;;;;15.07;58.37;100620.69;5039704;28;20097;-71
2022/06/27 03:59:12;;;;;;;9.30;7.83;;;;;;;15.05;58.39;100617.38;5032454;28;20124;-71
2022/06/27 04:01:39;;;;;;;8.10;7.60;;;;;;;15.04;58.44;100615.69;5027710;28;20087;-71
2022/06/27 04:04:06;;;;;;;8.23;7.23;;;;;;;15.09;58.60;100629.69;5048944;28;20045;-71
2022/06/27 04:06:33;;;;;;;11.10;7.83;;;;;;;14.87;58.56;100602.22;5034223;28;20053;-71
2022/06/27 04:09:00;;;;;;;9.27;7.80;;;;;;;15.03;58.49;100631.72;5031765;28;20132;-69
2022/06/27 04:11:27;;;;;;;8.30;7.60;;;;;;;15.03;58.36;100628.09;5052299;28;20107;-71
2022/06/27 04:13:54;;;;;;;8.77;7.87;;;;;;;14.89;58.21;100614.00;5041256;28;20041;-71
2022/06/27 04:16:21;;;;;;;8.60;7.90;;;;;;;15.06;58.48;100635.91;5036921;28;20186;-70
2022/06/27 04:18:54;;;;;;;8.13;7.57;;;;;;;15.03;58.23;100636.53;5047563;28;20053;-70
2022/06/27 04:21:21;;;;;;;8.27;7.57;;;;;;;14.84;58.18;100612.13;5036672;28;20130;-69
2022/06/27 04:23:48;;;;;;;9.47;7.60;;;;;;;15.00;58.17;100640.78;5047933;28;20065;-69
2022/06/27 04:26:14;;;;;;;8.57;7.73;;;;;;;15.03;58.29;100637.34;5052424;28;20077;-69
2022/06/27 04:28:41;;;;;;;13.03;7.70;;;;;;;15.17;58.41;100665.53;5017928;28;20111;-71
2022/06/27 04:31:10;;;;;;;8.57;7.90;;;;;;;15.17;58.25;100663.53;5036764;28;20130;-69
2022/06/27 04:33:37;;;;;;;8.50;7.70;;;;;;;15.00;58.26;100637.13;5051910;28;20045;-69
2022/06/27 04:36:05;;;;;;;9.10;7.50;;;;;;;14.98;58.11;100626.22;5051552;28;20139;-69
2022/06/27 04:38:32;;;;;;;8.27;7.37;;;;;;;14.99;58.23;100629.84;5047668;28;20049;-72
2022/06/27 04:40:59;;;;;;;8.93;7.87;;;;;;;15.26;57.98;100651.59;5035574;28;20096;-73
2022/06/27 04:43:27;;;;;;;7.77;7.17;;;;;;;15.33;57.72;100655.66;5035679;28;20510;-73
2022/06/27 04:45:54;;;;;;;7.83;7.07;;;;;;;15.27;57.54;100642.00;5042860;28;20077;-73
2022/06/27 04:48:21;;;;;;;7.80;7.20;;;;;;;15.27;57.58;100656.06;5045672;28;20191;-70
2022/06/27 04:50:48;;;;;;;7.70;7.00;;;;;;;15.18;57.67;100661.59;5035268;28;20077;-69
2022/06/27 04:53:15;;;;;;;8.47;7.87;;;;;;;15.10;57.90;100656.66;5052438;28;20416;-69
2022/06/27 04:55:42;;;;;;;11.10;7.67;;;;;;;15.05;57.81;100646.34;5052196;28;20136;-69
2022/06/27 04:58:09;;;;;;;11.40;8.27;;;;;;;15.16;58.00;100664.69;5043553;28;20045;-69
2022/06/27 05:00:36;;;;;;;10.97;7.07;;;;;;;15.18;57.65;100672.84;5035265;28;20136;-70
2022/06/27 05:03:03;;;;;;;12.63;7.87;;;;;;;15.10;57.88;100663.09;5035224;28;20456;-69
2022/06/27 05:05:30;;;;;;;7.90;7.30;;;;;;;15.15;57.63;100674.28;5039397;28;20049;-69
2022/06/27 05:07:57;;;;;;;8.60;7.83;;;;;;;15.07;57.60;100668.50;5053725;28;20088;-68
2022/06/27 05:10:24;;;;;;;8.40;7.60;;;;;;;15.09;57.91;100671.88;5052009;28;20092;-69
2022/06/27 05:12:51;;;;;;;9.63;8.40;;;;;;;15.04;58.31;100674.75;5047782;28;20486;-70
2022/06/27 05:15:18;;;;;;;8.70;7.80;;;;;;;15.04;58.05;100684.03;5049529;28;20049;-70
2022/06/27 05:17:45;;;;;;;10.50;8.20;;;;;;;14.89;58.14;100659.81;5034428;28;20053;-71
2022/06/27 05:20:12;;;;;;;8.23;7.63;;;;;;;14.99;57.99;100680.47;5034555;28;20049;-68
2022/06/27 05:22:39;;;;;;;9.27;7.43;;;;;;;14.91;58.14;100665.97;5043081;28;20139;-71
2022/06/27 05:25:07;;;;;;;7.40;6.90;;;;;;;15.11;58.11;100684.50;5050019;28;20057;-69
2022/06/27 05:27:35;;;;;;;8.47;7.67;;;;;;;15.21;58.04;100702.31;5035175;28;20088;-68
2022/06/27 05:30:05;;;;;;;10.80;8.10;;;;;;;15.29;57.87;100702.44;5034877;28;20068;-69
2022/06/27 05:32:31;;;;;;;8.37;7.67;;;;;;;15.28;57.98;100694.31;5045884;28;20045;-69
2022/06/27 05:34:58;;;;;;;10.33;7.50;;;;;;;15.29;57.84;100679.94;5040966;28;20059;-70
2022/06/27 05:37:26;;;;;;;12.70;7.77;;;;;;;15.55;57.89;100699.16;5041478;28;20049;-70
2022/06/27 05:39:53;;;;;;;8.10;7.50;;;;;;;15.66;57.86;100706.31;5046723;28;20479;-71
2022/06/27 05:42:20;;;;;;;9.17;8.30;;;;;;;15.77;57.58;100707.78;5034240;28;20081;-71
2022/06/27 05:44:47;;;;;;;9.50;7.10;;;;;;;15.83;57.45;100705.69;5037441;28;20140;-71
2022/06/27 05:47:14;;;;;;;8.37;7.70;;;;;;;15.98;57.67;100707.38;5035875;28;20155;-71
2022/06/27 05:49:42;;;;;;;9.50;7.40;;;;;;;16.10;57.51;100693.56;5031662;28;20088;-71
2022/06/27 05:52:10;;;;;;;7.43;6.80;;;;;;;16.14;57.47;100680.53;5035226;28;20449;-72
2022/06/27 05:54:37;;;;;;;7.80;7.20;;;;;;;16.31;56.92;100693.97;5040116;28;20147;-71
2022/06/27 05:57:05;;;;;;;11.37;7.83;;;;;;;16.50;57.06;100691.84;5035347;28;20144;-71
2022/06/27 05:59:33;;;;;;;13.18;7.85;;;;;;;16.91;56.41;100701.34;5042682;28;20138;-71
2022/06/27 06:02:01;;;;;;;8.75;7.85;;;;;;;17.27;55.86;100699.28;5043006;28;20099;-71
2022/06/27 06:04:29;;;;;;;7.50;6.80;;;;;;;17.54;55.41;100720.06;5043354;28;20462;-72
2022/06/27 06:06:56;;;;;;;10.80;10.20;;;;;;;17.55;55.19;100693.47;5044892;28;20593;-71
2022/06/27 06:09:23;;;;;;;11.38;10.35;;;;;;;17.69;54.79;100690.56;5043808;28;20099;-71
2022/06/27 06:11:51;;;;;;;11.23;8.13;;;;;;;17.90;54.80;100710.63;5043312;28;20136;-71
2022/06/27 06:14:21;;;;;;;8.85;8.02;;;;;;;17.91;54.35;100673.53;5032403;28;20144;-71
2022/06/27 06:16:49;;;;;;;10.25;9.43;;;;;;;18.35;53.63;100714.06;5040871;28;20061;-70
2022/06/27 06:19:17;;;;;;;9.05;8.35;;;;;;;18.39;53.61;100700.97;5043382;28;20140;-70
2022/06/27 06:21:45;;;;;;;9.13;8.30;;;;;;;18.61;53.06;100702.81;5046961;28;20140;-70
2022/06/27 06:24:12;;;;;;;10.82;10.15;;;;;;;18.88;52.68;100712.19;5040674;28;20048;-71
2022/06/27 06:26:41;;;;;;;9.90;8.95;;;;;;;18.95;52.81;100712.53;5042042;28;20673;-71
2022/06/27 06:29:15;;;;;;;10.13;9.23;;;;;;;19.22;52.23;100724.66;5042157;28;20053;-70
2022/06/27 06:31:46;;;;;;;9.23;8.48;;;;;;;19.41;51.78;100713.78;5033386;28;20046;-71
2022/06/27 06:34:17;;;;;;;12.05;8.25;;;;;;;19.64;51.46;100711.59;5044337;28;20091;-65
2022/06/27 06:36:45;;;;;;;9.00;8.30;;;;;;;19.79;50.90;100696.03;5045248;28;20075;-65
2022/06/27 06:39:12;;;;;;;12.77;11.23;;;;;;;19.92;50.58;100700.66;5039813;28;20452;-65
2022/06/27 06:41:40;;;;;;;9.35;8.50;;;;;;;20.25;50.05;100703.66;5031102;28;20133;-65
2022/06/27 06:44:07;;;;;;;11.88;10.65;;;;;;;20.50;49.64;100720.84;5039362;28;20208;-66
2022/06/27 06:46:34;;;;;;;10.73;7.72;;;;;;;20.83;49.44;100718.16;5037015;28;20053;-65
2022/06/27 06:49:10;;;;;;;9.20;8.40;;;;;;;21.17;48.67;100707.69;5037271;28;20049;-64
2022/06/27 06:51:39;;;;;;;11.30;10.45;;;;;;;21.46;48.02;100712.41;5033863;28;20053;-65
2022/06/27 06:54:07;;;;;;;8.52;7.85;;;;;;;21.67;47.95;100710.34;5032275;28;20140;-65
2022/06/27 06:56:36;;;;;;;9.27;8.50;;;;;;;21.87;47.54;100705.75;5031324;28;20157;-64
2022/06/27 06:59:04;;;;;;;9.23;8.45;;;;;;;22.00;47.06;100710.28;5032372;28;20072;-64
2022/06/27 07:01:33;;;;;;;10.13;8.70;;;;;;;22.02;46.50;100729.84;5032281;28;20144;-65
2022/06/27 07:04:01;;;;;;;14.65;7.47;;;;;;;22.03;46.57;100733.50;5041007;28;20053;-65
2022/06/27 07:06:29;;;;;;;11.32;10.38;;;;;;;22.48;46.12;100730.56;5040623;28;20064;-65
2022/06/27 07:08:58;;;;;;;9.35;8.07;;;;;;;22.61;45.33;100712.31;5042043;28;20078;-65
2022/06/27 07:11:29;;;;;;;9.52;8.73;;;;;;;22.61;45.17;100728.56;5036725;28;20085;-65
2022/06/27 07:13:58;;;;;;;10.93;7.53;;;;;;;22.45;45.30;100729.25;5044630;28;20059;-65
2022/06/27 07:16:26;;;;;;;9.18;8.38;;;;;;;22.90;45.14;100741.66;5032028;28;20084;-66
2022/06/27 07:18:55;;;;;;;8.93;7.47;;;;;;;23.17;44.16;100745.75;5051432;28;20458;-65
2022/06/27 07:21:24;;;;;;;8.25;7.45;;;;;;;23.37;43.95;100721.94;5044069;28;20175;-66
2022/06/27 07:23:52;;;;;;;8.47;7.37;;;;;;;23.05;43.44;100705.94;5031384;28;20132;-65
2022/06/27 07:26:19;;;;;;;9.23;8.43;;;;;;;23.24;43.47;100754.50;5030403;28;20781;-64
2022/06/27 07:28:48;;;;;;;10.10;9.30;;;;;;;23.05;43.70;100749.50;5036097;28;20145;-66
2022/06/27 07:31:15;;;;;;;12.95;11.95;;;;;;;23.44;42.89;100760.38;5037473;28;20580;-65
2022/06/27 07:33:45;;;;;;;8.35;7.55;;;;;;;23.85;42.15;100776.22;5037514;28;20514;-65
2022/06/27 07:36:15;;;;;;;10.15;6.72;;;;;;;24.12;41.98;100766.78;5039296;28;20372;-66
2022/06/27 07:38:46;;;;;;;7.57;6.82;;;;;;;24.41;41.10;100776.13;5032196;28;20054;-66
2022/06/27 07:41:15;;;;;;;9.57;8.68;;;;;;;24.49;41.14;100765.72;5032366;28;20508;-65
2022/06/27 07:43:44;;;;;;;8.50;7.70;;;;;;;24.76;40.74;100781.88;5032278;28;21792;-66
2022/06/27 07:46:12;;;;;;;7.50;6.90;;;;;;;24.27;41.05;100779.41;5031209;28;20052;-65
2022/06/27 07:48:39;;;;;;;9.48;8.68;;;;;;;24.07;40.88;100760.53;5041711;28;20057;-65
2022/06/27 07:51:06;;;;;;;9.35;6.63;;;;;;;24.33;40.31;100785.66;5035604;28;20076;-66
2022/06/27 07:53:35;;;;;;;6.60;6.20;;;;;;;24.30;40.30;100769.25;5043311;28;20068;-65
2022/06/27 07:56:06;;;;;;;7.63;7.03;;;;;;;24.83;39.41;100804.88;5031994;28;20464;-66
2022/06/27 07:58:38;;;;;;;9.40;8.80;;;;;;;24.59;39.77;100802.25;5039057;28;20049;-65
2022/06/27 08:01:07;;;;;;;10.38;9.50;;;;;;;24.87;39.57;100812.72;5039731;28;20053;-65
2022/06/27 08:03:41;;;;;;;9.35;8.65;;;;;;;24.58;39.70;100797.72;5039226;28;20100;-66
2022/06/27 08:06:15;;;;;;;8.35;7.68;;;;;;;24.54;39.81;100788.25;5037607;28;20155;-66
2022/06/27 08:08:45;;;;;;;9.98;9.27;;;;;;;25.16;38.71;100822.81;5048810;28;20092;-67
2022/06/27 08:11:18;;;;;;;14.68;12.15;;;;;;;25.38;38.43;100801.25;5038934;28;20160;-66
2022/06/27 08:13:47;;;;;;;9.13;8.20;;;;;;;25.17;38.47;100813.88;5034302;28;20476;-67
2022/06/27 08:16:15;;;;;;;9.65;8.77;;;;;;;25.39;38.40;100832.31;5041402;28;20132;-66
2022/06/27 08:18:46;;;;;;;9.17;8.47;;;;;;;25.70;37.93;100831.34;5043338;28;20060;-67
2022/06/27 08:21:18;;;;;;;8.50;7.88;;;;;;;25.29;37.97;100830.03;5038482;28;20298;-66
2022/06/27 08:23:48;;;;;;;8.52;7.85;;;;;;;24.87;38.31;100821.28;5040112;28;20059;-66
2022/06/27 08:26:16;;;;;;;8.40;7.70;;;;;;;24.51;39.18;100828.97;5040795;28;20128;-64
2022/06/27 08:28:44;;;;;;;8.48;7.72;;;;;;;24.32;39.11;100830.50;5039597;28;20048;-65
2022/06/27 08:31:12;;;;;;;7.57;6.85;;;;;;;23.98;38.76;100825.50;5045192;28;20061;-67
2022/06/27 08:33:41;;;;;;;7.88;6.80;;;;;;;23.63;39.46;100815.53;5050077;28;20053;-66
2022/06/27 08:36:08;;;;;;;7.10;6.60;;;;;;;23.73;39.52;100831.31;5034306;28;20045;-65
2022/06/27 08:38:50;;;;;;;6.75;6.30;;;;;;;23.55;39.32;100830.75;5035435;28;20057;-66
2022/06/27 08:41:19;;;;;;;7.15;6.43;;;;;;;23.40;39.24;100826.66;5038688;28;20052;-66
2022/06/27 08:43:48;;;;;;;7.15;6.55;;;;;;;23.39;39.19;100827.84;5045181;28;20131;-66
2022/06/27 08:46:16;;;;;;;9.05;8.65;;;;;;;23.00;39.36;100814.41;5038268;28;20148;-66
2022/06/27 08:48:45;;;;;;;8.45;7.63;;;;;;;23.00;39.38;100829.47;5049332;28;20052;-66
2022/06/27 08:51:13;;;;;;;8.40;7.57;;;;;;;22.82;39.60;100820.34;5045935;28;20081;-65
2022/06/27 08:53:41;;;;;;;8.05;7.40;;;;;;;22.83;39.61;100827.69;5036883;28;20045;-66
2022/06/27 08:56:10;;;;;;;6.88;6.55;;;;;;;22.99;39.06;100824.16;5043761;28;20096;-66
2022/06/27 08:58:38;;;;;;;7.50;7.10;;;;;;;23.10;38.89;100819.59;5044107;28;20133;-66
2022/06/27 09:01:07;;;;;;;7.68;7.18;;;;;;;23.35;38.76;100835.47;5043552;28;20077;-65
2022/06/27 09:03:34;;;;;;;7.10;6.60;;;;;;;24.08;38.46;100851.47;5040388;28;20050;-66
2022/06/27 09:06:07;;;;;;;7.88;7.20;;;;;;;24.53;38.10;100806.59;5034680;28;20136;-65
2022/06/27 09:08:54;;;;;;;7.93;7.38;;;;;;;25.00;37.97;100839.97;5039439;28;20148;-65
2022/06/27 09:11:30;;;;;;;7.70;7.30;;;;;;;25.07;37.66;100840.13;5044661;28;20099;-65
2022/06/27 09:13:57;;;;;;;7.78;7.28;;;;;;;25.17;37.53;100847.34;5035936;28;20053;-65
2022/06/27 09:16:24;;;;;;;8.32;7.82;;;;;;;25.11;37.54;100838.22;5033327;28;20073;-65
2022/06/27 09:18:52;;;;;;;9.13;8.52;;;;;;;25.44;37.47;100842.66;5046001;28;20050;-66
2022/06/27 09:21:20;;;;;;;7.63;7.22;;;;;;;26.06;36.26;100845.59;5036052;28;20049;-66
2022/06/27 09:23:54;;;;;;;7.93;7.32;;;;;;;26.49;36.07;100832.91;5048038;28;20135;-66
2022/06/27 09:26:31;;;;;;;8.68;6.88;;;;;;;26.82;35.47;100840.81;5039281;28;20485;-66
2022/06/27 09:29:08;;;;;;;11.63;10.93;;;;;;;26.79;35.15;100840.78;5035958;28;20143;-66
2022/06/27 09:31:42;;;;;;;7.90;7.40;;;;;;;26.48;35.71;100836.97;5040068;28;20087;-66
2022/06/27 09:34:09;;;;;;;8.50;7.85;;;;;;;26.86;35.40;100843.75;5041038;28;20049;-66
2022/06/27 09:36:42;;;;;;;7.55;7.05;;;;;;;26.91;35.15;100832.78;5042831;28;20495;-65
2022/06/27 09:39:18;;;;;;;8.32;7.68;;;;;;;27.12;35.07;100837.19;5038182;28;20049;-67
2022/06/27 09:41:54;;;;;;;7.45;7.05;;;;;;;27.49;34.43;100834.47;5039935;28;20049;-66
2022/06/27 09:44:24;;;;;;;9.00;8.30;;;;;;;27.59;34.08;100841.56;5044709;28;20744;-66
2022/06/27 09:46:58;;;;;;;7.25;6.70;;;;;;;27.72;33.59;100842.13;5045143;28;20523;-66
2022/06/27 09:49:34;;;;;;;8.15;7.65;;;;;;;27.86;33.64;100836.59;5045899;28;20401;-66
2022/06/27 09:52:24;;;;;;;10.48;9.88;;;;;;;27.97;33.76;100833.88;5041284;28;20601;-67
2022/06/27 09:54:55;;;;;;;8.35;7.85;;;;;;;27.81;33.45;100845.56;5043051;28;20136;-66
2022/06/27 09:57:22;;;;;;;8.60;8.10;;;;;;;27.45;33.89;100824.97;5043082;28;20136;-66
2022/06/27 09:59:51;;;;;;;8.73;7.72;;;;;;;27.67;33.35;100845.34;5044052;28;20132;-66
2022/06/27 10:02:22;;;;;;;7.80;7.18;;;;;;;27.71;33.65;100837.63;5041852;28;20290;-66
2022/06/27 10:04:51;;;;;;;9.90;9.13;;;;;;;27.92;33.42;100834.22;5041811;28;20053;-66
2022/06/27 10:07:19;;;;;;;7.85;7.40;;;;;;;28.13;32.72;100836.47;5041828;28;20508;-65
2022/06/27 10:09:52;;;;;;;8.00;7.50;;;;;;;28.25;33.31;100818.97;5033677;28;20120;-66
2022/06/27 10:12:24;;;;;;;9.05;8.13;;;;;;;28.37;32.44;100815.81;5063818;28;20454;-66
2022/06/27 10:15:09;;;;;;;7.25;6.82;;;;;;;28.49;32.60;100832.78;5037449;28;20488;-65
2022/06/27 10:17:39;;;;;;;10.63;7.07;;;;;;;28.60;32.32;100823.44;5033621;28;20155;-65
2022/06/27 10:20:07;;;;;;;9.00;8.02;;;;;;;28.56;31.64;100821.34;5035129;28;20098;-65
2022/06/27 10:22:34;;;;;;;9.17;8.47;;;;;;;28.51;32.34;100843.88;5032033;28;20131;-66
2022/06/27 10:25:26;;;;;;;8.90;8.30;;;;;;;28.58;32.39;100833.28;5042659;28;20379;-66
2022/06/27 10:28:12;;;;;;;7.68;7.18;;;;;;;28.80;31.78;100839.19;5030326;28;20444;-66
2022/06/27 10:30:56;;;;;;;8.82;8.23;;;;;;;28.64;31.68;100824.28;5036262;28;20053;-66
2022/06/27 10:33:26;;;;;;;8.38;7.68;;;;;;;28.70;31.52;100845.69;5037141;28;20515;-66
2022/06/27 10:35:59;;;;;;;7.95;7.28;;;;;;;28.94;31.40;100842.19;5034194;28;20136;-65
2022/06/27 10:38:39;;;;;;;7.97;7.43;;;;;;;28.86;31.44;100831.88;5033972;28;20050;-66
2022/06/27 10:41:11;;;;;;;8.70;8.02;;;;;;;28.95;31.27;100840.13;5039183;28;20057;-66
2022/06/27 10:43:54;;;;;;;8.10;7.50;;;;;;;28.79;31.31;100803.06;5035581;28;20163;-64
2022/06/27 10:46:21;;;;;;;9.70;8.90;;;;;;;28.85;31.29;100844.56;5043730;28;20127;-66
2022/06/27 10:48:52;;;;;;;8.55;7.80;;;;;;;29.05;30.93;100827.91;5042139;28;20408;-66
2022/06/27 10:51:32;;;;;;;8.75;8.13;;;;;;;29.21;30.77;100831.31;5038065;28;20114;-65
2022/06/27 10:54:05;;;;;;;9.50;8.55;;;;;;;28.94;30.78;100833.56;5064704;28;20049;-65
2022/06/27 10:56:36;;;;;;;8.88;8.32;;;;;;;29.06;30.31;100843.94;5034954;28;20057;-66
2022/06/27 10:59:14;;;;;;;8.60;8.05;;;;;;;29.00;30.23;100842.66;5033494;28;20056;-65
2022/06/27 11:01:43;;;;;;;8.95;8.32;;;;;;;28.91;30.50;100819.97;5035319;28;20088;-66
2022/06/27 11:04:25;;;;;;;9.13;8.43;;;;;;;29.11;30.39;100837.00;5049798;28;20049;-65
2022/06/27 11:06:56;;;;;;;8.55;7.95;;;;;;;29.32;30.49;100842.03;5049073;28;20076;-65
2022/06/27 11:09:40;;;;;;;9.15;8.55;;;;;;;29.51;29.91;100838.88;5043082;28;20136;-64
2022/06/27 11:12:09;;;;;;;10.48;9.88;;;;;;;29.27;30.29;100840.38;5032125;28;20132;-65
2022/06/27 11:14:56;;;;;;;9.15;8.48;;;;;;;29.08;30.02;100834.91;5032014;28;20067;-65
2022/06/27 11:17:50;;;;;;;8.85;8.30;;;;;;;29.00;31.06;100826.25;5042630;28;20056;-65
2022/06/27 11:20:26;;;;;;;8.73;7.95;;;;;;;29.04;31.60;100824.22;5030057;28;20132;-65
2022/06/27 11:23:08;;;;;;;8.52;7.95;;;;;;;28.95;31.43;100812.19;5034426;28;20050;-65
2022/06/27 11:25:39;;;;;;;9.15;8.35;;;;;;;29.18;31.99;100826.34;5032748;28;20162;-65
2022/06/27 11:33:40;;;;;;;8.70;7.80;;;;;;;29.53;31.58;100810.50;5045687;28;20057;-65
2022/06/27 11:36:12;;;;;;;8.60;7.80;;;;;;;29.81;31.73;100824.19;5031553;28;20129;-66
2022/06/27 11:38:44;;;;;;;9.30;8.60;;;;;;;29.94;30.96;100828.34;5031311;28;20088;-65
2022/06/27 11:41:26;;;;;;;9.23;8.52;;;;;;;30.13;31.63;100817.72;5041349;28;20136;-65
2022/06/27 11:44:02;;;;;;;12.05;11.25;;;;;;;30.30;30.85;100822.72;5046399;28;20477;-65